Time;durP1;ratioP1;P1;durP2;ratioP2;P2;SDS_P1;SDS_P2;PMS_P1;PMS_P2;Temp;Humidity;BMP_temperature;BMP_pressure;BME280_temperature;BME280_humidity;BME280_pressure;Samples;Min_cycle;Max_cycle;Signal;HPM_P1;HPM_P2
2023/09/11 00:02:01;;;;;;;;;;;;;;;19.09;100.00;100233.34;179886;1253;45916;-88
2023/09/11 00:06:05;;;;;;;;;;;;;;;19.04;100.00;100233.45;179894;1252;45785;-87
2023/09/11 00:10:08;;;;;;;;;;;;;;;18.99;100.00;100231.50;178605;1255;58534;-86
2023/09/11 00:14:12;;;;;;;;;;;;;;;18.96;100.00;100227.46;180102;1254;45423;-87
2023/09/11 00:18:15;;;;;;;;;;;;;;;18.95;100.00;100223.13;178807;1254;45741;-87
2023/09/11 00:22:18;;;;;;;;;;;;;;;18.91;100.00;100218.65;177936;1254;45834;-88
2023/09/11 00:26:21;;;;;;;;;;;;;;;18.86;100.00;100219.73;178755;1254;45637;-87
2023/09/11 00:30:25;;;;;;;;;;;;;;;18.84;100.00;100217.29;178554;1254;59130;-87
2023/09/11 00:34:29;;;;;;;;;;;;;;;18.80;100.00;100217.11;178538;1254;45916;-87
2023/09/11 00:38:32;;;;;;;;;;;;;;;18.78;100.00;100217.74;178078;1256;45795;-87
2023/09/11 00:42:36;;;;;;;;;;;;;;;18.71;100.00;100219.48;177945;1254;45699;-87
2023/09/11 00:46:40;;;;;;;;;;;;;;;18.64;100.00;100217.80;178739;1254;45873;-88
2023/09/11 00:50:44;;;;;;;;;;;;;;;18.48;100.00;100216.81;179532;1254;59104;-88
2023/09/11 00:54:47;;;;;;;;;;;;;;;18.40;100.00;100215.88;178909;1254;45875;-88
2023/09/11 00:58:51;;;;;;;;;;;;;;;18.36;100.00;100211.86;178517;1258;44613;-89
2023/09/11 01:02:54;;;;;;;;;;;;;;;18.33;100.00;100212.16;178554;1256;45885;-88
2023/09/11 01:06:59;;;;;;;;;;;;;;;18.30;100.00;100210.54;178500;1254;45818;-88
2023/09/11 01:11:02;;;;;;;;;;;;;;;18.29;100.00;100208.19;178320;1256;56888;-88
2023/09/11 01:15:06;;;;;;;;;;;;;;;18.26;100.00;100206.21;178749;1254;45895;-88
2023/09/11 01:19:16;;;;;;;;;;;;;;;18.24;100.00;100202.99;179851;1254;45936;-88
2023/09/11 01:23:28;;;;;;;;;;;;;;;18.22;100.00;100204.25;178659;1254;45875;-88
2023/09/11 01:27:47;;;;;;;;;;;;;;;18.21;100.00;100202.28;179342;1254;45626;-88
2023/09/11 01:31:51;;;;;;;;;;;;;;;18.18;100.00;100198.56;178729;1256;57902;-89
2023/09/11 01:35:55;;;;;;;;;;;;;;;18.14;100.00;100199.54;178828;1254;45756;-89
2023/09/11 01:39:58;;;;;;;;;;;;;;;18.12;100.00;100198.83;179193;1256;45863;-89
2023/09/11 01:44:22;;;;;;;;;;;;;;;18.10;100.00;100192.09;178323;1254;45897;-89
2023/09/11 01:48:28;;;;;;;;;;;;;;;18.08;100.00;100197.45;178825;1256;45011;-89
2023/09/11 01:52:33;;;;;;;;;;;;;;;18.07;100.00;100197.38;178806;1254;58327;-89
2023/09/11 01:56:37;;;;;;;;;;;;;;;18.07;100.00;100197.04;178826;1254;45789;-87
2023/09/11 02:00:40;;;;;;;;;;;;;;;18.04;100.00;100195.23;178915;1254;45902;-89
2023/09/11 02:04:43;;;;;;;;;;;;;;;18.00;100.00;100193.33;179021;1254;44224;-89
2023/09/11 02:08:46;;;;;;;;;;;;;;;17.98;100.00;100194.98;179761;1254;44500;-88
2023/09/11 02:12:49;;;;;;;;;;;;;;;17.97;100.00;100194.20;177843;1254;59348;-88
2023/09/11 02:16:52;;;;;;;;;;;;;;;17.96;100.00;100195.10;177969;1254;45808;-88
2023/09/11 02:20:56;;;;;;;;;;;;;;;17.92;100.00;100196.39;178426;1254;45758;-87
2023/09/11 02:24:59;;;;;;;;;;;;;;;17.90;100.00;100195.80;179165;1254;45773;-87
2023/09/11 02:29:02;;;;;;;;;;;;;;;17.88;100.00;100195.63;178219;1254;45689;-88
2023/09/11 02:33:06;;;;;;;;;;;;;;;17.84;100.00;100198.05;178485;1254;58021;-87
2023/09/11 02:37:09;;;;;;;;;;;;;;;17.80;100.00;100195.54;178201;1254;45835;-88
2023/09/11 02:41:12;;;;;;;;;;;;;;;17.77;100.00;100191.98;178324;1254;45773;-88
2023/09/11 02:45:15;;;;;;;;;;;;;;;17.75;100.00;100193.64;178711;1257;45850;-88
2023/09/11 02:49:19;;;;;;;;;;;;;;;17.72;100.00;100193.67;178328;1254;45760;-88
2023/09/11 02:53:22;;;;;;;;;;;;;;;17.67;100.00;100195.42;178382;1254;57895;-88
2023/09/11 02:57:25;;;;;;;;;;;;;;;17.64;100.00;100197.99;178030;1254;45895;-87
2023/09/11 03:01:28;;;;;;;;;;;;;;;17.60;100.00;100195.90;178618;1254;45728;-88
2023/09/11 03:05:32;;;;;;;;;;;;;;;17.56;100.00;100195.91;178274;1255;45845;-88
2023/09/11 03:09:35;;;;;;;;;;;;;;;17.55;100.00;100195.04;179199;1254;45811;-88
2023/09/11 03:13:38;;;;;;;;;;;;;;;17.51;100.00;100193.69;178573;1256;58006;-88
2023/09/11 03:17:41;;;;;;;;;;;;;;;17.47;100.00;100192.92;178942;1254;46384;-86
2023/09/11 03:21:44;;;;;;;;;;;;;;;17.45;100.00;100193.09;178639;1254;45679;-85
2023/09/11 03:25:48;;;;;;;;;;;;;;;17.44;100.00;100185.17;179630;1254;43866;-86
2023/09/11 03:29:53;;;;;;;;;;;;;;;17.45;100.00;100183.24;178884;1254;45830;-86
2023/09/11 03:33:56;;;;;;;;;;;;;;;17.46;100.00;100183.64;178494;1254;57822;-86
2023/09/11 03:38:00;;;;;;;;;;;;;;;17.47;100.00;100188.71;178776;1254;43908;-86
2023/09/11 03:42:03;;;;;;;;;;;;;;;17.46;100.00;100184.89;178183;1257;45846;-86
2023/09/11 03:46:06;;;;;;;;;;;;;;;17.43;100.00;100184.32;178717;1254;45933;-86
2023/09/11 03:50:09;;;;;;;;;;;;;;;17.38;100.00;100183.08;178424;1254;45917;-86
2023/09/11 03:54:12;;;;;;;;;;;;;;;17.36;100.00;100183.01;178397;1255;57790;-86
2023/09/11 03:58:16;;;;;;;;;;;;;;;17.35;100.00;100180.63;178323;1254;45760;-86
2023/09/11 04:02:19;;;;;;;;;;;;;;;17.34;100.00;100175.52;179124;1254;45762;-86
2023/09/11 04:06:22;;;;;;;;;;;;;;;17.31;100.00;100175.64;178487;1254;45701;-87
2023/09/11 04:10:25;;;;;;;;;;;;;;;17.30;100.00;100171.84;178436;1254;45808;-87
2023/09/11 04:14:28;;;;;;;;;;;;;;;17.22;100.00;100173.02;177878;1254;57694;-86
2023/09/11 04:18:32;;;;;;;;;;;;;;;17.17;100.00;100170.60;179568;1255;45833;-88
2023/09/11 04:22:35;;;;;;;;;;;;;;;17.17;100.00;100169.33;179480;1254;45810;-88
2023/09/11 04:26:45;;;;;;;;;;;;;;;17.18;100.00;100170.59;179679;1254;44369;-87
2023/09/11 04:30:48;;;;;;;;;;;;;;;17.22;100.00;100164.64;178844;1254;45763;-87
2023/09/11 04:34:51;;;;;;;;;;;;;;;17.26;100.00;100163.65;179114;1256;58185;-87
2023/09/11 04:38:54;;;;;;;;;;;;;;;17.29;100.00;100162.10;178852;1254;43740;-87
2023/09/11 04:42:58;;;;;;;;;;;;;;;17.30;100.00;100157.65;179018;1254;45807;-87
2023/09/11 04:47:01;;;;;;;;;;;;;;;17.29;100.00;100157.02;178790;1254;45891;-87
2023/09/11 04:51:05;;;;;;;;;;;;;;;17.42;100.00;100161.55;178798;1254;45775;-86
2023/09/11 04:55:08;;;;;;;;;;;;;;;17.80;100.00;100151.52;178653;1254;58502;-86
2023/09/11 04:59:12;;;;;;;;;;;;;;;18.22;100.00;100152.96;179066;1254;45744;-87
2023/09/11 05:03:15;;;;;;;;;;;;;;;18.81;100.00;100152.25;178648;1259;45769;-87
2023/09/11 05:07:18;;;;;;;;;;;;;;;19.21;100.00;100153.61;178852;1256;45885;-87
2023/09/11 05:11:21;;;;;;;;;;;;;;;19.66;100.00;100151.37;179185;1255;45736;-87
2023/09/11 05:15:25;;;;;;;;;;;;;;;20.29;100.00;100153.52;178518;1254;58014;-87
2023/09/11 05:19:28;;;;;;;;;;;;;;;20.95;100.00;100154.73;177914;1254;45920;-87
2023/09/11 05:23:31;;;;;;;;;;;;;;;21.50;100.00;100155.98;178585;1256;45884;-87
2023/09/11 05:27:34;;;;;;;;;;;;;;;21.95;98.32;100154.55;178942;1255;45858;-85
2023/09/11 05:31:37;;;;;;;;;;;;;;;22.26;95.83;100155.98;180408;1254;45707;-87
2023/09/11 05:35:43;;;;;;;;;;;;;;;22.35;94.08;100158.10;179596;1254;58535;-86
2023/09/11 05:39:46;;;;;;;;;;;;;;;22.21;94.47;100160.73;179213;1254;45791;-87
2023/09/11 05:43:49;;;;;;;;;;;;;;;22.54;95.28;100159.94;179107;1254;49261;-88
2023/09/11 05:47:53;;;;;;;;;;;;;;;23.06;93.19;100157.66;178735;1254;46334;-87
2023/09/11 05:51:57;;;;;;;;;;;;;;;23.61;89.84;100150.75;178779;1256;45751;-86
2023/09/11 05:56:00;;;;;;;;;;;;;;;24.06;87.08;100150.45;178438;1255;57667;-87
2023/09/11 06:00:09;;;;;;;;;;;;;;;24.22;84.28;100142.20;178511;1256;45756;-87
2023/09/11 06:04:13;;;;;;;;;;;;;;;24.28;85.91;100142.78;178891;1254;45901;-86
2023/09/11 06:08:16;;;;;;;;;;;;;;;24.39;84.03;100142.27;178529;1254;45765;-86
2023/09/11 06:12:19;;;;;;;;;;;;;;;24.50;82.87;100146.25;178105;1254;45863;-86
2023/09/11 06:16:22;;;;;;;;;;;;;;;24.52;81.71;100143.84;178637;1256;58134;-87
2023/09/11 06:20:25;;;;;;;;;;;;;;;24.36;81.93;100141.96;178334;1254;45884;-86
2023/09/11 06:24:28;;;;;;;;;;;;;;;23.99;84.44;100142.13;178612;1255;45188;-87
2023/09/11 06:28:32;;;;;;;;;;;;;;;23.95;85.97;100143.27;177975;1255;45835;-86
2023/09/11 06:32:35;;;;;;;;;;;;;;;23.75;86.46;100140.02;179011;1256;45760;-86
2023/09/11 06:36:38;;;;;;;;;;;;;;;23.68;88.20;100144.70;178736;1255;59809;-86
2023/09/11 06:40:43;;;;;;;;;;;;;;;23.70;87.01;100145.06;178836;1254;45760;-87
2023/09/11 06:44:47;;;;;;;;;;;;;;;23.97;86.27;100141.33;180669;1254;43268;-87
2023/09/11 06:48:50;;;;;;;;;;;;;;;24.13;83.39;100142.30;179263;1256;45869;-87
2023/09/11 06:52:53;;;;;;;;;;;;;;;24.20;83.21;100137.70;178375;1258;45856;-86
2023/09/11 06:56:57;;;;;;;;;;;;;;;24.24;82.72;100138.80;178628;1254;58868;-87
2023/09/11 07:01:01;;;;;;;;;;;;;;;24.28;83.51;100137.64;178333;1256;45869;-87
2023/09/11 07:05:04;;;;;;;;;;;;;;;24.61;84.67;100142.05;179021;1254;46264;-87
2023/09/11 07:09:08;;;;;;;;;;;;;;;24.83;82.57;100144.25;178800;1254;44612;-87
2023/09/11 07:13:11;;;;;;;;;;;;;;;25.02;83.87;100144.23;178836;1255;43754;-86
2023/09/11 07:17:14;;;;;;;;;;;;;;;25.23;82.51;100150.06;178486;1255;59308;-87
2023/09/11 07:21:17;;;;;;;;;;;;;;;25.41;82.85;100152.95;179914;1254;45669;-87
2023/09/11 07:25:22;;;;;;;;;;;;;;;25.60;82.02;100153.22;179698;1256;45890;-86
2023/09/11 07:29:27;;;;;;;;;;;;;;;25.85;81.93;100149.78;178747;1255;45894;-86
2023/09/11 07:33:31;;;;;;;;;;;;;;;26.02;80.24;100146.15;178943;1256;45869;-86
2023/09/11 07:37:34;;;;;;;;;;;;;;;26.23;80.34;100142.61;179059;1259;59245;-86
2023/09/11 07:41:37;;;;;;;;;;;;;;;26.41;80.23;100137.66;179437;1257;45900;-87
2023/09/11 07:45:41;;;;;;;;;;;;;;;26.64;80.14;100139.79;178939;1254;44231;-86
2023/09/11 07:49:45;;;;;;;;;;;;;;;26.90;77.97;100142.05;179026;1254;45657;-87
2023/09/11 07:53:52;;;;;;;;;;;;;;;27.06;75.33;100139.41;180646;1254;43916;-88
2023/09/11 07:57:58;;;;;;;;;;;;;;;27.01;73.55;100133.13;180356;1257;59580;-88
2023/09/11 08:02:02;;;;;;;;;;;;;;;27.21;73.07;100134.54;180335;1254;45907;-89
2023/09/11 08:06:06;;;;;;;;;;;;;;;27.26;70.95;100135.49;180404;1253;44505;-88
2023/09/11 08:10:10;;;;;;;;;;;;;;;27.31;70.07;100130.55;179711;1254;45778;-88
2023/09/11 08:14:25;;;;;;;;;;;;;;;27.36;70.15;100130.60;180318;1253;45765;-88
2023/09/11 08:18:38;;;;;;;;;;;;;;;27.49;69.58;100131.46;180656;1254;57863;-88
2023/09/11 08:23:06;;;;;;;;;;;;;;;27.58;69.03;100132.73;180029;1254;45790;-89
2023/09/11 08:27:10;;;;;;;;;;;;;;;27.64;69.80;100130.13;179903;1252;45653;-88
2023/09/11 08:31:14;;;;;;;;;;;;;;;27.74;67.17;100127.80;179421;1253;43972;-88
2023/09/11 08:35:17;;;;;;;;;;;;;;;27.79;67.33;100127.59;179326;1253;45778;-87
2023/09/11 08:39:20;;;;;;;;;;;;;;;27.72;66.79;100133.02;179101;1253;59185;-87
2023/09/11 08:43:24;;;;;;;;;;;;;;;27.76;67.75;100137.20;180313;1253;45749;-88
2023/09/11 08:47:30;;;;;;;;;;;;;;;27.73;66.57;100133.71;179542;1255;45759;-88
2023/09/11 08:51:47;;;;;;;;;;;;;;;27.71;67.15;100135.35;179321;1253;45666;-88
2023/09/11 08:55:53;;;;;;;;;;;;;;;27.72;67.52;100133.67;180005;1253;45829;-88
2023/09/11 09:00:06;;;;;;;;;;;;;;;27.84;66.43;100131.67;180332;1256;57751;-89
2023/09/11 09:04:11;;;;;;;;;;;;;;;27.88;67.51;100134.56;179755;1253;45884;-89
2023/09/11 09:08:15;;;;;;;;;;;;;;;27.96;64.04;100134.93;179514;1253;45802;-90
2023/09/11 09:12:19;;;;;;;;;;;;;;;28.02;64.33;100130.94;179329;1253;45910;-90
2023/09/11 09:16:23;;;;;;;;;;;;;;;28.12;62.38;100129.92;180726;1253;45650;-90
2023/09/11 09:20:30;;;;;;;;;;;;;;;28.26;61.27;100127.00;180044;1253;59508;-90
2023/09/11 09:24:34;;;;;;;;;;;;;;;28.36;60.35;100127.60;180066;1253;44517;-90
2023/09/11 09:28:44;;;;;;;;;;;;;;;28.45;61.98;100119.70;180189;1254;45752;-89
2023/09/11 09:32:48;;;;;;;;;;;;;;;28.55;62.23;100118.77;180145;1253;44316;-88
2023/09/11 09:36:53;;;;;;;;;;;;;;;28.64;61.11;100112.39;180601;1253;45153;-88
2023/09/11 09:40:57;;;;;;;;;;;;;;;28.71;61.06;100105.27;180689;1253;57853;-88
2023/09/11 09:45:00;;;;;;;;;;;;;;;28.80;59.79;100098.67;179608;1257;45650;-90
2023/09/11 09:49:08;;;;;;;;;;;;;;;28.67;57.73;100093.40;179791;1253;45789;-89
2023/09/11 09:53:20;;;;;;;;;;;;;;;28.52;58.08;100091.53;179808;1253;45702;-89
2023/09/11 09:57:24;;;;;;;;;;;;;;;28.43;56.50;100085.15;180746;1256;44411;-89
2023/09/11 10:01:28;;;;;;;;;;;;;;;28.39;58.36;100081.77;179714;1253;59649;-89
2023/09/11 10:05:31;;;;;;;;;;;;;;;28.28;58.51;100080.39;179989;1253;44363;-88
2023/09/11 10:24:20;;;;;;;;;;;;;;;28.63;59.59;100062.96;179105;1260;82930;-67
2023/09/11 10:28:27;;;;;;;;;;;;;;;28.65;56.79;100057.25;180482;1261;43554;-61
2023/09/11 10:32:48;;;;;;;;;;;;;;;28.83;58.12;100051.15;180035;1261;43699;-61
2023/09/11 10:36:56;;;;;;;;;;;;;;;29.03;57.34;100049.06;179906;1262;45765;-61
2023/09/11 10:46:18;;;;;;;;;;;;;;;29.28;52.51;100044.31;179305;1267;59780;-63
2023/09/11 10:50:41;;;;;;;;;;;;;;;29.27;51.59;100043.71;179449;1267;45674;-60
2023/09/11 10:54:45;;;;;;;;;;;;;;;29.30;52.66;100038.14;179504;1267;43678;-62
2023/09/11 10:58:52;;;;;;;;;;;;;;;29.52;52.76;100038.19;179148;1267;331361;-62
2023/09/11 11:02:57;;;;;;;;;;;;;;;29.70;51.22;100031.61;179377;1268;44008;-62
2023/09/11 11:07:02;;;;;;;;;;;;;;;29.92;50.31;100025.49;179419;1268;58304;-61
2023/09/11 11:16:30;;;;;;;;;;;;;;;30.30;48.84;100016.80;179347;1268;45807;-60
2023/09/11 11:20:34;;;;;;;;;;;;;;;30.42;48.17;100013.16;178357;1273;43929;-63
2023/09/11 11:24:54;;;;;;;;;;;;;;;30.55;49.45;100009.10;179136;1270;43418;-62
2023/09/11 11:29:18;;;;;;;;;;;;;;;30.61;50.18;100010.79;179592;1269;58146;-63
2023/09/11 11:33:24;;;;;;;;;;;;;;;30.58;49.49;100010.05;179906;1269;44508;-63
2023/09/11 11:37:32;;;;;;;;;;;;;;;30.72;50.50;100007.08;179552;1269;45833;-62
2023/09/11 11:41:37;;;;;;;;;;;;;;;30.75;49.46;100011.04;179506;1269;44971;-63
2023/09/11 11:46:06;;;;;;;;;;;;;;;30.85;50.73;100007.02;179183;1269;45779;-62
2023/09/11 11:50:10;;;;;;;;;;;;;;;30.97;48.84;100006.11;179013;1269;58770;-63
2023/09/11 11:54:24;;;;;;;;;;;;;;;31.01;48.81;100007.39;179314;1260;45723;-62
2023/09/11 11:58:29;;;;;;;;;;;;;;;31.00;48.91;100000.04;179780;1262;43682;-62
2023/09/11 12:02:39;;;;;;;;;;;;;;;30.97;49.45;99996.52;179835;1262;45798;-63
2023/09/11 12:06:43;;;;;;;;;;;;;;;31.03;49.68;99991.48;179837;1262;43376;-63
2023/09/11 12:10:50;;;;;;;;;;;;;;;31.03;52.08;99988.40;179823;1262;58038;-63
2023/09/11 12:14:58;;;;;;;;;;;;;;;31.00;51.25;99992.90;179997;1260;44455;-63
2023/09/11 12:19:02;;;;;;;;;;;;;;;30.95;49.53;99991.50;179959;1262;45710;-61
2023/09/11 12:23:06;;;;;;;;;;;;;;;30.99;48.77;99988.06;179584;1261;43570;-64
2023/09/11 12:27:14;;;;;;;;;;;;;;;31.03;49.59;99985.05;179833;1261;45751;-63
2023/09/11 12:31:19;;;;;;;;;;;;;;;31.03;49.88;99983.67;179822;1262;58016;-63
2023/09/11 12:35:30;;;;;;;;;;;;;;;31.15;48.85;99978.61;179914;1265;45915;-63
2023/09/11 12:39:34;;;;;;;;;;;;;;;31.29;49.01;99980.75;179819;1265;45803;-63
2023/09/11 12:43:37;;;;;;;;;;;;;;;31.28;50.83;99976.57;179880;1262;45774;-62
2023/09/11 12:47:40;;;;;;;;;;;;;;;31.31;51.47;99977.52;179872;1262;45842;-63
2023/09/11 12:56:41;;;;;;;;;;;;;;;31.49;50.70;99969.89;179882;1262;43734;-63
2023/09/11 13:05:13;;;;;;;;;;;;;;;31.66;48.18;99967.81;180025;1263;44643;-90
2023/09/11 13:09:20;;;;;;;;;;;;;;;31.76;49.72;99966.77;180038;1263;44530;-90
2023/09/11 13:13:54;;;;;;;;;;;;;;;31.81;49.72;99958.64;179941;1264;60210;-92
2023/09/11 13:27:24;;;;;;;;;;;;;;;31.54;49.52;99958.68;147557;1265;46237;-90
2023/09/11 13:31:28;;;;;;;;;;;;;;;31.49;50.20;99952.30;179252;1263;45872;-87
2023/09/11 13:35:32;;;;;;;;;;;;;;;31.56;50.25;99950.05;179597;1267;56989;-87
2023/09/11 13:39:36;;;;;;;;;;;;;;;31.62;51.42;99944.88;179539;1266;46033;-87
2023/09/11 13:43:40;;;;;;;;;;;;;;;31.73;51.90;99944.65;179139;1264;45829;-86
2023/09/11 13:47:45;;;;;;;;;;;;;;;31.81;50.25;99941.23;179230;1263;43921;-86
2023/09/11 13:51:55;;;;;;;;;;;;;;;31.85;48.33;99933.41;179726;1267;45804;-86
2023/09/11 13:56:25;;;;;;;;;;;;;;;31.83;47.85;99928.84;179386;1267;59293;-86
2023/09/11 14:00:31;;;;;;;;;;;;;;;31.82;47.74;99932.96;179108;1264;45774;-86
2023/09/11 14:04:35;;;;;;;;;;;;;;;31.82;47.72;99927.73;179133;1264;45829;-86
2023/09/11 14:08:39;;;;;;;;;;;;;;;31.79;49.17;99924.66;179152;1265;44553;-86
2023/09/11 14:12:43;;;;;;;;;;;;;;;31.82;50.56;99919.66;179156;1264;45807;-85
2023/09/11 14:16:47;;;;;;;;;;;;;;;31.82;51.51;99917.73;179279;1264;58674;-85
2023/09/11 14:20:51;;;;;;;;;;;;;;;31.85;49.28;99913.72;179396;1267;44660;-86
2023/09/11 14:24:55;;;;;;;;;;;;;;;31.85;48.42;99910.48;179932;1264;44483;-84
2023/09/11 14:29:00;;;;;;;;;;;;;;;31.86;48.35;99908.83;179760;1266;45940;-84
2023/09/11 14:33:04;;;;;;;;;;;;;;;31.83;48.35;99905.53;179363;1266;45915;-85
2023/09/11 14:37:09;;;;;;;;;;;;;;;31.83;48.32;99900.52;179639;1268;59438;-85
2023/09/11 14:41:26;;;;;;;;;;;;;;;31.92;48.54;99894.30;179610;1264;46276;-86
2023/09/11 14:45:30;;;;;;;;;;;;;;;32.01;48.18;99892.28;179471;1267;45678;-86
2023/09/11 14:49:34;;;;;;;;;;;;;;;32.03;48.12;99886.34;179145;1269;44368;-86
2023/09/11 14:53:39;;;;;;;;;;;;;;;32.03;47.99;99887.72;179407;1264;43868;-86
2023/09/11 14:57:43;;;;;;;;;;;;;;;32.05;48.36;99885.13;179093;1266;57406;-86
2023/09/11 15:01:47;;;;;;;;;;;;;;;32.05;48.25;99882.43;179213;1267;44048;-85
2023/09/11 15:05:50;;;;;;;;;;;;;;;32.05;46.86;99884.25;179398;1264;43717;-85
2023/09/11 15:09:55;;;;;;;;;;;;;;;32.03;47.08;99879.36;179071;1264;44355;-86
2023/09/11 15:13:58;;;;;;;;;;;;;;;32.03;47.51;99878.20;179581;1264;45858;-86
2023/09/11 15:18:03;;;;;;;;;;;;;;;32.02;48.40;99876.82;179184;1264;59325;-85
2023/09/11 15:22:07;;;;;;;;;;;;;;;32.02;48.35;99878.42;179512;1265;45850;-86
2023/09/11 15:26:11;;;;;;;;;;;;;;;31.94;48.88;99870.08;179419;1264;45902;-86
2023/09/11 15:30:15;;;;;;;;;;;;;;;31.91;48.29;99871.91;179530;1264;44101;-85
2023/09/11 15:34:19;;;;;;;;;;;;;;;31.94;47.82;99871.24;179369;1264;43997;-86
2023/09/11 15:38:23;;;;;;;;;;;;;;;31.96;47.73;99875.97;178956;1266;58609;-86
2023/09/11 15:42:27;;;;;;;;;;;;;;;31.97;48.37;99878.06;179178;1264;46593;-86
2023/09/11 15:46:30;;;;;;;;;;;;;;;31.88;50.35;99871.98;179014;1265;46040;-86
2023/09/11 15:50:43;;;;;;;;;;;;;;;31.66;52.20;99871.44;178943;1267;45797;-86
2023/09/11 15:54:47;;;;;;;;;;;;;;;31.32;52.86;99874.05;178918;1264;46622;-86
2023/09/11 15:58:51;;;;;;;;;;;;;;;31.07;51.49;99872.52;179098;1267;57890;-87
2023/09/11 16:02:54;;;;;;;;;;;;;;;30.82;51.69;99871.39;178857;1264;45768;-86
2023/09/11 16:06:59;;;;;;;;;;;;;;;30.66;52.49;99870.02;178987;1264;45807;-86
2023/09/11 16:11:03;;;;;;;;;;;;;;;30.47;52.91;99862.82;179183;1265;45849;-87
2023/09/11 16:15:11;;;;;;;;;;;;;;;30.30;53.30;99866.05;179264;1264;45809;-87
2023/09/11 16:19:15;;;;;;;;;;;;;;;30.15;53.64;99863.73;179088;1264;61247;-87
2023/09/11 16:23:19;;;;;;;;;;;;;;;30.02;54.46;99869.48;179309;1266;44510;-86
2023/09/11 16:27:23;;;;;;;;;;;;;;;29.90;55.43;99866.48;178939;1264;44686;-86
2023/09/11 16:31:27;;;;;;;;;;;;;;;29.79;56.42;99867.79;179264;1264;45819;-86
2023/09/11 16:35:35;;;;;;;;;;;;;;;29.68;56.19;99864.42;179412;1264;44238;-86
2023/09/11 16:39:39;;;;;;;;;;;;;;;29.55;56.55;99865.34;179223;1267;57906;-86
2023/09/11 16:43:42;;;;;;;;;;;;;;;29.43;57.42;99863.80;179176;1264;43848;-87
2023/09/11 16:47:46;;;;;;;;;;;;;;;29.31;58.05;99861.44;179286;1264;46021;-86
2023/09/11 16:51:50;;;;;;;;;;;;;;;29.19;59.09;99859.65;179049;1264;44501;-86
2023/09/11 16:55:54;;;;;;;;;;;;;;;28.99;60.17;99857.28;179169;1265;45839;-86
2023/09/11 17:00:00;;;;;;;;;;;;;;;28.68;62.53;99861.05;178955;1267;59360;-86
2023/09/11 17:04:04;;;;;;;;;;;;;;;28.30;63.74;99865.43;179095;1264;45864;-86
2023/09/11 17:08:08;;;;;;;;;;;;;;;27.99;64.84;99862.98;179024;1266;45808;-86
2023/09/11 17:12:11;;;;;;;;;;;;;;;27.64;65.96;99869.02;178944;1264;44690;-86
2023/09/11 17:26:25;;;;;;;;;;;;;;;26.72;69.35;99866.91;180090;1262;45684;-59
2023/09/11 17:30:29;;;;;;;;;;;;;;;26.53;70.73;99867.77;180162;1262;44572;-58
2023/09/11 17:34:34;;;;;;;;;;;;;;;26.34;70.54;99873.27;180070;1262;46454;-58
2023/09/11 17:38:47;;;;;;;;;;;;;;;26.20;70.07;99873.12;180096;1262;45807;-58
2023/09/11 17:42:50;;;;;;;;;;;;;;;26.06;70.85;99871.11;180089;1262;58216;-58
2023/09/11 17:46:54;;;;;;;;;;;;;;;25.90;71.96;99875.34;180131;1262;44159;-58
2023/09/11 17:51:03;;;;;;;;;;;;;;;25.69;73.83;99880.70;180151;1262;45717;-57
2023/09/11 17:55:07;;;;;;;;;;;;;;;25.45;75.89;99881.48;180130;1262;43340;-57
2023/09/11 17:59:10;;;;;;;;;;;;;;;25.22;77.17;99882.69;179989;1264;45689;-57
2023/09/11 18:03:13;;;;;;;;;;;;;;;25.01;77.95;99883.39;180053;1263;58287;-58
2023/09/11 18:07:17;;;;;;;;;;;;;;;24.76;78.42;99884.67;180120;1262;45873;-58
2023/09/11 18:11:20;;;;;;;;;;;;;;;24.57;78.07;99892.39;179976;1262;45665;-57
2023/09/11 18:15:25;;;;;;;;;;;;;;;24.46;77.60;99899.05;179803;1262;45833;-57
2023/09/11 18:19:29;;;;;;;;;;;;;;;24.35;78.84;99901.55;180061;1262;43594;-58
2023/09/11 18:23:46;;;;;;;;;;;;;;;24.24;79.37;99904.11;180214;1262;57736;-57
2023/09/11 18:27:49;;;;;;;;;;;;;;;24.15;80.36;99901.73;180328;1262;44614;-57
2023/09/11 18:31:52;;;;;;;;;;;;;;;24.05;80.76;99903.66;180264;1261;44647;-58
2023/09/11 18:36:01;;;;;;;;;;;;;;;23.94;81.13;99904.91;180144;1262;44706;-57
2023/09/11 18:40:07;;;;;;;;;;;;;;;23.81;81.66;99907.62;180265;1262;44751;-57
2023/09/11 18:44:14;;;;;;;;;;;;;;;23.75;81.15;99908.46;180199;1262;58314;-57
2023/09/11 18:48:18;;;;;;;;;;;;;;;23.70;81.83;99908.35;180172;1262;43325;-57
2023/09/11 18:52:22;;;;;;;;;;;;;;;23.63;82.50;99909.70;180150;1262;44671;-57
2023/09/11 18:56:28;;;;;;;;;;;;;;;23.56;83.35;99910.17;180125;1262;44698;-57
2023/09/11 19:05:06;;;;;;;;;;;;;;;23.35;84.81;99913.46;180050;1262;59935;-58
2023/09/11 19:09:10;;;;;;;;;;;;;;;23.22;85.66;99916.63;180020;1262;45762;-58
2023/09/11 19:13:14;;;;;;;;;;;;;;;23.12;86.07;99916.29;180098;1262;45757;-57
2023/09/11 19:17:24;;;;;;;;;;;;;;;23.03;86.67;99914.89;180150;1261;43570;-57
2023/09/11 19:21:29;;;;;;;;;;;;;;;22.91;87.50;99914.95;179861;1262;43351;-57
2023/09/11 19:25:33;;;;;;;;;;;;;;;22.82;87.57;99915.67;179908;1262;59421;-57
2023/09/11 19:29:38;;;;;;;;;;;;;;;22.73;88.09;99913.87;179846;1262;43387;-58
2023/09/11 19:33:42;;;;;;;;;;;;;;;22.63;87.91;99914.04;179822;1263;43958;-58
2023/09/11 19:37:45;;;;;;;;;;;;;;;22.57;87.71;99912.43;179918;1262;43378;-59
2023/09/11 19:41:50;;;;;;;;;;;;;;;22.49;87.67;99912.30;179846;1261;44557;-58
2023/09/11 19:45:54;;;;;;;;;;;;;;;22.41;87.96;99910.42;180200;1262;58358;-57
2023/09/11 19:49:59;;;;;;;;;;;;;;;22.35;87.44;99912.84;180230;1262;43398;-58
2023/09/11 19:54:03;;;;;;;;;;;;;;;22.32;87.12;99914.02;180077;1262;44336;-58
2023/09/11 19:58:09;;;;;;;;;;;;;;;22.29;87.27;99911.02;180136;1264;45719;-57
2023/09/11 20:02:17;;;;;;;;;;;;;;;22.26;86.96;99914.28;180088;1262;43437;-58
2023/09/11 20:06:20;;;;;;;;;;;;;;;22.21;87.11;99920.60;180074;1262;58012;-58
2023/09/11 20:10:23;;;;;;;;;;;;;;;22.20;86.83;99917.97;180071;1262;44644;-59
2023/09/11 20:14:26;;;;;;;;;;;;;;;22.19;86.67;99919.92;180149;1261;44553;-59
2023/09/11 20:18:30;;;;;;;;;;;;;;;22.12;87.42;99917.99;180268;1261;45612;-59
2023/09/11 20:22:35;;;;;;;;;;;;;;;22.07;88.02;99922.83;180141;1262;45784;-59
2023/09/11 20:26:38;;;;;;;;;;;;;;;22.00;88.12;99926.45;180129;1263;58987;-59
2023/09/11 20:30:41;;;;;;;;;;;;;;;21.93;88.35;99921.60;180230;1262;43542;-59
2023/09/11 20:34:46;;;;;;;;;;;;;;;21.87;88.38;99923.69;180044;1262;45747;-60
2023/09/11 20:38:51;;;;;;;;;;;;;;;21.81;88.25;99917.86;180069;1265;45683;-59
2023/09/11 20:42:54;;;;;;;;;;;;;;;21.74;88.40;99920.11;180226;1262;43319;-60
2023/09/11 20:47:01;;;;;;;;;;;;;;;21.65;89.13;99913.81;180028;1262;59288;-60
2023/09/11 20:51:04;;;;;;;;;;;;;;;21.56;90.13;99919.56;179845;1263;45927;-59
2023/09/11 20:55:08;;;;;;;;;;;;;;;21.44;91.47;99915.36;179878;1262;43405;-59
2023/09/11 20:59:12;;;;;;;;;;;;;;;21.38;93.01;99921.09;179743;1264;45908;-60
2023/09/11 21:03:15;;;;;;;;;;;;;;;21.31;93.38;99921.59;180154;1261;43447;-60
2023/09/11 21:07:19;;;;;;;;;;;;;;;21.26;93.74;99922.51;180271;1262;58566;-60
2023/09/11 21:11:24;;;;;;;;;;;;;;;21.14;93.46;99921.67;180153;1262;45747;-59
2023/09/11 21:15:42;;;;;;;;;;;;;;;21.10;93.00;99913.85;179956;1262;44384;-60
2023/09/11 21:19:45;;;;;;;;;;;;;;;21.03;94.28;99917.66;180107;1262;43537;-59
2023/09/11 21:23:48;;;;;;;;;;;;;;;20.93;94.71;99911.43;180088;1263;45679;-60
2023/09/11 21:27:52;;;;;;;;;;;;;;;20.82;96.25;99910.80;179998;1264;58695;-59
2023/09/11 21:31:56;;;;;;;;;;;;;;;20.65;97.62;99912.88;180090;1262;44854;-60
2023/09/11 21:36:04;;;;;;;;;;;;;;;20.61;96.89;99914.11;179912;1263;44452;-61
2023/09/11 21:40:08;;;;;;;;;;;;;;;20.59;97.31;99915.68;179883;1263;43983;-60
2023/09/11 21:44:12;;;;;;;;;;;;;;;20.50;97.87;99919.38;179787;1263;44344;-60